createdAt,value
2023-03-25T00:00:59.185Z,8.08
2023-03-25T00:03:29.039Z,8.08
2023-03-25T00:05:59.082Z,8.07
2023-03-25T00:08:28.044Z,8.00
2023-03-25T00:10:58.971Z,7.92
2023-03-25T00:13:27.897Z,7.85
2023-03-25T00:15:59.746Z,7.84
2023-03-25T00:18:34.999Z,7.78
2023-03-25T00:21:04.884Z,7.73
2023-03-25T00:23:33.437Z,7.68
2023-03-25T00:26:04.506Z,7.68
2023-03-25T00:28:36.210Z,7.66
2023-03-25T00:31:08.129Z,7.58
2023-03-25T00:33:36.825Z,7.59
2023-03-25T00:36:05.944Z,7.57
2023-03-25T00:38:36.635Z,7.57
2023-03-25T00:41:26.824Z,7.56
2023-03-25T00:43:56.902Z,7.53
2023-03-25T00:46:28.021Z,7.47
2023-03-25T00:48:57.289Z,7.47
2023-03-25T00:51:27.231Z,7.46
2023-03-25T00:53:57.114Z,7.44
2023-03-25T00:56:25.788Z,7.47
2023-03-25T00:58:54.125Z,7.52
2023-03-25T01:01:28.358Z,7.49
2023-03-25T01:04:01.172Z,7.43
2023-03-25T01:06:34.386Z,7.39
2023-03-25T01:09:05.994Z,7.34
2023-03-25T01:11:36.286Z,7.31
2023-03-25T01:14:06.248Z,7.28
2023-03-25T01:16:34.893Z,7.25
2023-03-25T01:19:02.912Z,7.24
2023-03-25T01:21:31.115Z,7.22
2023-03-25T01:23:59.015Z,7.24
2023-03-25T01:26:27.166Z,7.22
2023-03-25T01:28:55.416Z,7.24
2023-03-25T01:31:31.355Z,7.25
2023-03-25T01:33:59.747Z,7.22
2023-03-25T01:36:30.744Z,7.24
2023-03-25T01:39:00.971Z,7.23
2023-03-25T01:41:42.352Z,7.20
2023-03-25T01:44:19.764Z,7.21
2023-03-25T01:46:50.789Z,7.17
2023-03-25T01:49:24.957Z,7.18
2023-03-25T01:51:57.982Z,7.16
2023-03-25T01:54:26.200Z,7.14
2023-03-25T01:56:55.568Z,7.12
2023-03-25T01:59:27.648Z,7.14
2023-03-25T02:01:58.248Z,7.11
2023-03-25T02:04:40.380Z,7.10
2023-03-25T02:07:12.789Z,7.09
2023-03-25T02:09:40.765Z,7.08
2023-03-25T02:12:08.969Z,7.07
2023-03-25T02:14:38.988Z,7.05
2023-03-25T02:17:32.504Z,7.06
2023-03-25T02:20:09.482Z,7.05
2023-03-25T02:23:08.964Z,7.06
2023-03-25T02:25:57.579Z,7.07
2023-03-25T02:28:49.044Z,7.08
2023-03-25T02:31:19.817Z,7.11
2023-03-25T02:33:52.330Z,7.10
2023-03-25T02:37:08.102Z,7.12
2023-03-25T02:40:20.762Z,7.14
2023-03-25T02:43:15.312Z,7.16
2023-03-25T02:45:51.755Z,7.18
2023-03-25T02:48:25.174Z,7.21
2023-03-25T02:50:58.451Z,7.22
2023-03-25T02:53:34.796Z,7.24
2023-03-25T02:56:09.989Z,7.27
2023-03-25T02:58:40.684Z,7.26
2023-03-25T03:01:11.393Z,7.28
2023-03-25T03:03:39.392Z,7.28
2023-03-25T03:06:09.119Z,7.28
2023-03-25T03:08:52.878Z,7.29
2023-03-25T03:11:38.244Z,7.30
2023-03-25T03:14:24.615Z,7.31
2023-03-25T03:17:13.610Z,7.31
2023-03-25T03:19:48.532Z,7.36
2023-03-25T03:22:37.843Z,7.39
2023-03-25T03:25:30.677Z,7.39
2023-03-25T03:28:07.069Z,7.43
2023-03-25T03:30:40.925Z,7.47
2023-03-25T03:33:30.121Z,7.47
2023-03-25T03:36:06.544Z,7.47
2023-03-25T03:38:39.855Z,7.42
2023-03-25T03:41:11.947Z,7.24
2023-03-25T03:44:04.117Z,6.95
2023-03-25T03:46:34.768Z,6.75
2023-03-25T03:49:06.372Z,6.39
2023-03-25T03:51:40.048Z,6.20
2023-03-25T03:54:15.076Z,6.01
2023-03-25T03:56:47.791Z,5.92
2023-03-25T03:59:22.475Z,5.84
2023-03-25T04:01:59.425Z,5.78
2023-03-25T04:04:30.964Z,5.79
2023-03-25T04:07:05.980Z,5.78
2023-03-25T04:09:43.233Z,5.81
2023-03-25T04:12:21.960Z,5.79
2023-03-25T04:14:49.993Z,5.79
2023-03-25T04:17:18.832Z,5.76
2023-03-25T04:19:50.467Z,5.77
2023-03-25T04:22:19.787Z,5.73
2023-03-25T04:24:51.277Z,5.75
2023-03-25T04:27:20.265Z,5.70
2023-03-25T04:29:49.097Z,5.67
2023-03-25T04:32:17.544Z,5.65
2023-03-25T04:34:45.461Z,5.62
2023-03-25T04:37:13.385Z,5.61
2023-03-25T04:39:41.857Z,5.62
2023-03-25T04:42:15.117Z,5.59
2023-03-25T04:44:42.970Z,5.55
2023-03-25T04:47:16.112Z,5.55
2023-03-25T04:49:46.358Z,5.53
2023-03-25T04:52:14.307Z,5.50
2023-03-25T04:54:42.248Z,5.52
2023-03-25T04:57:10.359Z,5.53
2023-03-25T04:59:38.569Z,5.51
2023-03-25T05:02:08.128Z,5.49
2023-03-25T05:04:36.133Z,5.49
2023-03-25T05:07:04.221Z,5.50
2023-03-25T05:09:32.988Z,5.48
2023-03-25T05:12:00.863Z,5.47
2023-03-25T05:14:28.792Z,5.45
2023-03-25T05:16:58.697Z,5.43
2023-03-25T05:19:26.892Z,5.46
2023-03-25T05:21:57.433Z,5.51
2023-03-25T05:24:25.416Z,5.54
2023-03-25T05:26:53.241Z,5.53
2023-03-25T05:29:21.187Z,5.54
2023-03-25T05:31:49.912Z,5.57
2023-03-25T05:34:18.285Z,5.58
2023-03-25T05:36:46.384Z,5.61
2023-03-25T05:39:14.401Z,5.61
2023-03-25T05:41:42.325Z,5.64
2023-03-25T05:44:11.586Z,5.67
2023-03-25T05:46:39.465Z,5.68
2023-03-25T05:49:07.388Z,5.68
2023-03-25T05:51:38.744Z,5.70
2023-03-25T05:54:12.234Z,5.75
2023-03-25T05:56:40.991Z,5.77
2023-03-25T05:59:09.595Z,5.80
2023-03-25T06:01:43.229Z,5.84
2023-03-25T06:04:11.272Z,5.86
2023-03-25T06:06:39.145Z,5.91
2023-03-25T06:09:08.350Z,5.91
2023-03-25T06:11:39.345Z,5.95
2023-03-25T06:14:07.855Z,5.97
2023-03-25T06:16:36.762Z,5.98
2023-03-25T06:19:04.886Z,5.97
2023-03-25T06:21:34.865Z,5.99
2023-03-25T06:24:03.822Z,5.98
2023-03-25T06:26:31.879Z,5.98
2023-03-25T06:28:59.821Z,6.05
2023-03-25T06:31:28.229Z,6.11
2023-03-25T06:33:57.348Z,6.13
2023-03-25T06:36:26.888Z,6.18
2023-03-25T06:38:55.300Z,6.21
2023-03-25T06:41:26.384Z,6.25
2023-03-25T06:43:54.722Z,6.35
2023-03-25T06:46:22.659Z,6.40
2023-03-25T06:48:50.722Z,6.50
2023-03-25T06:51:18.822Z,6.59
2023-03-25T06:53:46.938Z,6.68
2023-03-25T06:56:15.693Z,6.75
2023-03-25T06:58:44.877Z,6.84
2023-03-25T07:01:12.823Z,6.92
2023-03-25T07:03:40.725Z,6.98
2023-03-25T07:06:09.114Z,7.07
2023-03-25T07:08:37.140Z,7.22
2023-03-25T07:11:09.118Z,7.36
2023-03-25T07:13:37.119Z,7.49
2023-03-25T07:16:05.444Z,7.61
2023-03-25T07:18:33.740Z,7.71
2023-03-25T07:21:01.672Z,7.79
2023-03-25T07:23:29.606Z,7.87
2023-03-25T07:25:58.315Z,8.03
2023-03-25T07:28:26.154Z,8.14
2023-03-25T07:30:54.109Z,8.22
2023-03-25T07:33:22.217Z,8.26
2023-03-25T07:35:50.411Z,8.34
2023-03-25T07:38:19.959Z,8.40
2023-03-25T07:40:50.376Z,8.40
2023-03-25T07:43:18.646Z,8.49
2023-03-25T07:45:46.673Z,8.56
2023-03-25T07:48:17.959Z,8.65
2023-03-25T07:50:47.080Z,8.75
2023-03-25T07:53:15.046Z,8.97
2023-03-25T07:55:42.976Z,9.64
2023-03-25T07:58:10.895Z,10.27
2023-03-25T08:00:39.315Z,11.04
2023-03-25T08:03:07.950Z,11.22
2023-03-25T08:05:36.076Z,11.11
2023-03-25T08:08:07.081Z,10.95
2023-03-25T08:10:36.425Z,10.81
2023-03-25T08:13:04.439Z,10.61
2023-03-25T08:15:32.404Z,10.41
2023-03-25T08:18:00.353Z,10.36
2023-03-25T08:20:28.435Z,10.24
2023-03-25T08:22:58.681Z,10.07
2023-03-25T08:25:27.228Z,9.91
2023-03-25T08:27:55.361Z,9.85
2023-03-25T08:30:23.977Z,9.75
2023-03-25T08:32:55.858Z,9.62
2023-03-25T08:35:25.393Z,9.51
2023-03-25T08:37:53.292Z,9.40
2023-03-25T08:40:21.248Z,9.24
2023-03-25T08:42:49.176Z,9.21
2023-03-25T08:45:17.132Z,9.09
2023-03-25T08:47:45.264Z,8.93
2023-03-25T08:50:13.805Z,8.82
2023-03-25T08:52:42.539Z,8.72
2023-03-25T08:55:12.644Z,8.65
2023-03-25T08:57:40.585Z,8.52
2023-03-25T09:00:15.550Z,8.31
2023-03-25T09:02:44.913Z,8.06
2023-03-25T09:05:14.002Z,7.78
2023-03-25T09:07:42.129Z,7.60
2023-03-25T09:10:10.756Z,7.43
2023-03-25T09:12:38.637Z,7.36
2023-03-25T09:15:07.641Z,7.40
2023-03-25T09:17:35.570Z,7.46
2023-03-25T09:20:03.564Z,7.45
2023-03-25T09:22:31.570Z,7.46
2023-03-25T09:24:59.523Z,7.51
2023-03-25T09:27:27.502Z,7.63
2023-03-25T09:29:55.483Z,7.74
2023-03-25T09:32:23.407Z,7.80
2023-03-25T09:34:51.516Z,7.93
2023-03-25T09:37:19.919Z,8.06
2023-03-25T09:39:48.009Z,8.10
2023-03-25T09:42:35.311Z,8.04
2023-03-25T09:45:12.162Z,8.03
2023-03-25T09:47:48.831Z,7.95
2023-03-25T09:50:18.166Z,7.96
2023-03-25T09:53:04.007Z,7.96
2023-03-25T09:55:36.407Z,7.94
2023-03-25T09:58:22.254Z,7.95
2023-03-25T10:01:27.981Z,8.05
2023-03-25T10:03:59.988Z,8.15
2023-03-25T10:06:28.152Z,8.20
2023-03-25T10:09:29.059Z,8.21
2023-03-25T10:12:32.491Z,8.13
2023-03-25T10:15:23.130Z,8.20
2023-03-25T10:18:12.603Z,8.20
2023-03-25T10:20:40.613Z,8.27
2023-03-25T10:23:22.681Z,8.41
2023-03-25T10:25:57.364Z,8.47
2023-03-25T10:28:32.594Z,8.54
2023-03-25T10:31:01.526Z,8.47
2023-03-25T10:33:38.987Z,8.42
2023-03-25T10:36:13.090Z,8.34
2023-03-25T10:38:43.311Z,8.19
2023-03-25T10:41:32.187Z,7.99
2023-03-25T10:44:00.146Z,7.84
2023-03-25T10:46:48.272Z,7.65
2023-03-25T10:49:20.075Z,7.42
2023-03-25T10:51:50.849Z,7.17
2023-03-25T10:54:20.016Z,6.95
2023-03-25T10:56:53.334Z,6.82
2023-03-25T10:59:46.649Z,6.68
2023-03-25T11:02:20.781Z,6.56
2023-03-25T11:04:52.465Z,6.50
2023-03-25T11:07:22.371Z,6.41
2023-03-25T11:09:53.104Z,6.35
2023-03-25T11:12:33.317Z,6.24
2023-03-25T11:15:19.930Z,6.16
2023-03-25T11:17:49.556Z,6.13
2023-03-25T11:20:29.637Z,6.11
2023-03-25T11:23:05.444Z,6.04
2023-03-25T11:25:41.190Z,6.04
2023-03-25T11:28:40.898Z,6.05
2023-03-25T11:31:09.358Z,6.08
2023-03-25T11:33:40.752Z,6.11
2023-03-25T11:36:21.722Z,6.21
2023-03-25T11:38:58.071Z,6.31
2023-03-25T11:41:30.868Z,6.38
2023-03-25T11:43:59.062Z,6.51
2023-03-25T11:46:27.470Z,6.64
2023-03-25T11:48:55.608Z,6.78
2023-03-25T11:51:27.333Z,6.91
2023-03-25T11:54:01.516Z,7.04
2023-03-25T11:56:41.466Z,7.17
2023-03-25T11:59:19.572Z,7.28
2023-03-25T12:01:49.671Z,7.38
2023-03-25T12:04:23.900Z,7.52
2023-03-25T12:07:07.510Z,7.70
2023-03-25T12:09:36.101Z,7.85
2023-03-25T12:12:12.847Z,7.97
2023-03-25T12:15:02.307Z,8.08
2023-03-25T12:17:36.140Z,8.21
2023-03-25T12:20:15.308Z,8.36
2023-03-25T12:22:46.024Z,8.46
2023-03-25T12:25:19.784Z,8.56
2023-03-25T12:28:01.087Z,8.63
2023-03-25T12:30:56.546Z,8.74
2023-03-25T12:33:33.812Z,8.87
2023-03-25T12:36:31.063Z,8.97
2023-03-25T12:39:18.579Z,9.11
2023-03-25T12:41:57.802Z,9.24
2023-03-25T12:44:43.939Z,9.27
2023-03-25T12:47:24.765Z,9.37
2023-03-25T12:50:06.356Z,9.46
2023-03-25T12:52:52.551Z,9.55
2023-03-25T12:55:45.386Z,9.64
2023-03-25T12:58:25.298Z,9.73
2023-03-25T13:01:18.912Z,9.82
2023-03-25T13:04:12.376Z,9.94
2023-03-25T13:07:12.914Z,10.15
2023-03-25T13:10:02.019Z,10.28
2023-03-25T13:12:37.564Z,10.49
2023-03-25T13:15:21.805Z,10.56
2023-03-25T13:18:16.255Z,10.59
2023-03-25T13:20:50.965Z,10.66
2023-03-25T13:23:23.290Z,10.69
2023-03-25T13:26:03.706Z,10.73
2023-03-25T13:28:42.280Z,10.81
2023-03-25T13:31:28.606Z,10.83
2023-03-25T13:34:22.035Z,10.87
2023-03-25T13:37:19.975Z,10.93
2023-03-25T13:40:14.206Z,10.96
2023-03-25T13:43:09.146Z,11.00
2023-03-25T13:45:53.599Z,11.01
2023-03-25T13:48:29.998Z,10.95
2023-03-25T13:51:04.164Z,10.95
2023-03-25T13:53:44.296Z,10.98
2023-03-25T13:56:31.063Z,11.00
2023-03-25T13:59:12.998Z,11.04
2023-03-25T14:01:54.792Z,11.10
2023-03-25T14:04:48.657Z,11.06
2023-03-25T14:07:31.440Z,11.07
2023-03-25T14:10:51.385Z,11.08
2023-03-25T14:13:35.186Z,11.07
2023-03-25T14:16:10.444Z,11.04
2023-03-25T14:18:54.299Z,11.10
2023-03-25T14:21:22.546Z,11.17
2023-03-25T14:24:02.093Z,11.21
2023-03-25T14:26:30.469Z,11.25
2023-03-25T14:28:59.102Z,11.27
2023-03-25T14:31:32.398Z,11.27
2023-03-25T14:34:05.865Z,11.30
2023-03-25T14:36:42.482Z,11.39
2023-03-25T14:39:33.437Z,11.44
2023-03-25T14:42:12.825Z,11.45
2023-03-25T14:44:50.869Z,11.47
2023-03-25T14:47:28.237Z,11.49
2023-03-25T14:50:17.636Z,11.49
2023-03-25T14:52:49.513Z,11.48
2023-03-25T14:55:23.622Z,11.42
2023-03-25T14:57:53.666Z,11.39
2023-03-25T15:00:29.552Z,11.37
2023-03-25T15:03:13.939Z,11.34
2023-03-25T15:05:43.765Z,11.30
2023-03-25T15:08:15.826Z,11.24
2023-03-25T15:10:49.432Z,11.19
2023-03-25T15:13:17.523Z,11.17
2023-03-25T15:15:48.720Z,11.17
2023-03-25T15:18:42.046Z,11.10
2023-03-25T15:21:09.936Z,10.90
2023-03-25T15:23:49.292Z,10.57
2023-03-25T15:26:42.978Z,9.99
2023-03-25T15:29:39.262Z,9.78
2023-03-25T15:32:16.464Z,9.61
2023-03-25T15:35:17.010Z,9.47
2023-03-25T15:37:50.769Z,9.43
2023-03-25T15:40:36.281Z,9.43
2023-03-25T15:43:42.511Z,9.46
2023-03-25T15:46:49.154Z,9.47
2023-03-25T15:49:35.477Z,9.49
2023-03-25T15:52:26.081Z,9.44
2023-03-25T15:55:02.108Z,9.41
2023-03-25T15:57:50.926Z,9.40
2023-03-25T16:00:26.099Z,9.40
2023-03-25T16:02:59.932Z,9.42
2023-03-25T16:05:28.818Z,9.46
2023-03-25T16:08:01.222Z,9.52
2023-03-25T16:10:34.440Z,9.63
2023-03-25T16:13:05.440Z,9.58
2023-03-25T16:15:35.856Z,9.57
2023-03-25T16:18:07.713Z,9.56
2023-03-25T16:20:37.865Z,9.56
2023-03-25T16:23:08.982Z,9.48
2023-03-25T16:25:41.435Z,9.37
2023-03-25T16:28:16.952Z,9.19
2023-03-25T16:30:50.732Z,9.00
2023-03-25T16:33:23.074Z,8.92
2023-03-25T16:35:59.509Z,8.86
2023-03-25T16:38:27.825Z,8.85
2023-03-25T16:41:17.869Z,8.78
2023-03-25T16:43:46.223Z,8.73
2023-03-25T16:46:17.138Z,8.75
2023-03-25T16:48:53.291Z,8.80
2023-03-25T16:51:36.692Z,8.78
2023-03-25T16:54:11.544Z,8.78
2023-03-25T16:56:40.441Z,8.77
2023-03-25T16:59:17.893Z,8.79
2023-03-25T17:01:53.705Z,8.75
2023-03-25T17:04:27.372Z,8.74
2023-03-25T17:06:59.100Z,8.75
2023-03-25T17:09:35.338Z,8.73
2023-03-25T17:12:08.302Z,8.74
2023-03-25T17:14:40.569Z,8.76
2023-03-25T17:17:43.172Z,8.74
2023-03-25T17:20:20.290Z,8.74
2023-03-25T17:23:01.874Z,8.76
2023-03-25T17:25:51.537Z,8.73
2023-03-25T17:28:42.684Z,8.71
2023-03-25T17:31:20.337Z,8.71
2023-03-25T17:33:51.027Z,8.69
2023-03-25T17:36:20.715Z,8.67
2023-03-25T17:38:52.940Z,8.65
2023-03-25T17:41:22.384Z,8.62
2023-03-25T17:43:54.488Z,8.58
2023-03-25T17:46:25.676Z,8.61
2023-03-25T17:48:56.438Z,8.61
2023-03-25T17:51:27.106Z,8.61
2023-03-25T17:53:55.755Z,8.62
2023-03-25T17:56:26.842Z,8.62
2023-03-25T17:59:19.464Z,8.60
2023-03-25T18:01:48.896Z,8.57
2023-03-25T18:04:18.175Z,8.54
2023-03-25T18:06:46.236Z,8.54
2023-03-25T18:09:23.265Z,8.52
2023-03-25T18:11:54.211Z,8.49
2023-03-25T18:14:23.367Z,8.48
2023-03-25T18:16:52.159Z,8.44
2023-03-25T18:19:26.109Z,8.42
2023-03-25T18:21:55.548Z,8.40
2023-03-25T18:24:23.620Z,8.36
2023-03-25T18:26:51.585Z,8.31
2023-03-25T18:29:31.365Z,8.26
2023-03-25T18:31:59.712Z,8.21
2023-03-25T18:34:28.989Z,8.18
2023-03-25T18:36:59.225Z,8.15
2023-03-25T18:39:28.972Z,8.11
2023-03-25T18:41:56.919Z,8.10
2023-03-25T18:44:25.143Z,8.06
2023-03-25T18:46:53.172Z,8.04
2023-03-25T18:49:21.334Z,8.03
2023-03-25T18:51:52.700Z,8.00
2023-03-25T18:54:20.675Z,8.00
2023-03-25T18:56:48.573Z,7.99
2023-03-25T18:59:22.896Z,7.98
2023-03-25T19:01:50.876Z,7.98
2023-03-25T19:04:19.494Z,7.93
2023-03-25T19:06:47.927Z,7.90
2023-03-25T19:09:20.021Z,7.85
2023-03-25T19:11:48.674Z,7.80
2023-03-25T19:14:16.895Z,7.77
2023-03-25T19:16:57.306Z,7.76
2023-03-25T19:19:31.431Z,7.75
2023-03-25T19:21:59.525Z,7.71
2023-03-25T19:24:27.563Z,7.67
2023-03-25T19:26:55.527Z,7.64
2023-03-25T19:29:23.444Z,7.62
2023-03-25T19:31:51.301Z,7.60
2023-03-25T19:34:19.349Z,7.59
2023-03-25T19:36:48.191Z,7.55
2023-03-25T19:39:17.283Z,7.53
2023-03-25T19:41:46.098Z,7.50
2023-03-25T19:44:15.693Z,7.47
2023-03-25T19:46:43.685Z,7.44
2023-03-25T19:49:12.104Z,7.38
2023-03-25T19:51:41.323Z,7.34
2023-03-25T19:54:14.793Z,7.31
2023-03-25T19:56:43.608Z,7.27
2023-03-25T19:59:11.979Z,7.24
2023-03-25T20:01:40.005Z,7.20
2023-03-25T20:04:08.145Z,7.19
2023-03-25T20:06:36.045Z,7.19
2023-03-25T20:09:05.372Z,7.22
2023-03-25T20:11:34.071Z,7.25
2023-03-25T20:14:02.206Z,7.30
2023-03-25T20:16:32.135Z,7.29
2023-03-25T20:19:00.060Z,7.35
2023-03-25T20:21:27.937Z,7.39
2023-03-25T20:23:55.888Z,7.45
2023-03-25T20:26:23.887Z,7.50
2023-03-25T20:28:53.077Z,7.54
2023-03-25T20:31:23.566Z,7.58
2023-03-25T20:33:52.621Z,7.63
2023-03-25T20:36:21.513Z,7.68
2023-03-25T20:38:57.118Z,7.74
2023-03-25T20:41:26.261Z,7.78
2023-03-25T20:43:54.156Z,7.79
2023-03-25T20:46:25.090Z,7.81
2023-03-25T20:48:53.270Z,7.81
2023-03-25T20:51:21.235Z,7.83
2023-03-25T20:53:49.924Z,7.83
2023-03-25T20:56:18.201Z,7.83
2023-03-25T20:58:46.501Z,7.83
2023-03-25T21:01:16.631Z,7.79
2023-03-25T21:03:44.595Z,7.78
2023-03-25T21:06:22.857Z,7.77
2023-03-25T21:08:52.655Z,7.74
2023-03-25T21:11:20.535Z,7.74
2023-03-25T21:13:48.634Z,7.71
2023-03-25T21:16:16.661Z,7.68
2023-03-25T21:18:44.694Z,7.71
2023-03-25T21:21:12.654Z,7.70
2023-03-25T21:23:44.162Z,7.67
2023-03-25T21:26:13.087Z,7.69
2023-03-25T21:28:41.094Z,7.69
2023-03-25T21:31:11.504Z,7.68
2023-03-25T21:33:39.460Z,7.68
2023-03-25T21:36:10.113Z,7.65
2023-03-25T21:38:37.992Z,7.69
2023-03-25T21:41:07.991Z,7.71
2023-03-25T21:43:38.870Z,7.74
2023-03-25T21:46:08.275Z,7.76
2023-03-25T21:48:39.494Z,7.77
2023-03-25T21:51:15.852Z,7.78
2023-03-25T21:53:46.638Z,7.78
2023-03-25T21:56:18.629Z,7.81
2023-03-25T21:58:48.327Z,7.81
2023-03-25T22:01:20.871Z,7.82
2023-03-25T22:03:48.785Z,7.82
2023-03-25T22:06:19.940Z,7.81
2023-03-25T22:08:48.471Z,7.80
2023-03-25T22:11:21.973Z,7.77
2023-03-25T22:13:51.702Z,7.73
2023-03-25T22:16:22.024Z,7.71
2023-03-25T22:18:50.615Z,7.68
2023-03-25T22:21:24.021Z,7.70
2023-03-25T22:23:55.852Z,7.67
2023-03-25T22:26:25.193Z,7.64
2023-03-25T22:29:04.368Z,7.64
2023-03-25T22:31:34.875Z,7.66
2023-03-25T22:34:05.112Z,7.64
2023-03-25T22:36:34.798Z,7.61
2023-03-25T22:39:04.149Z,7.60
2023-03-25T22:41:32.498Z,7.61
2023-03-25T22:44:00.666Z,7.62
2023-03-25T22:46:28.747Z,7.63
2023-03-25T22:48:56.759Z,7.63
2023-03-25T22:51:24.632Z,7.60
2023-03-25T22:53:52.646Z,7.59
2023-03-25T22:56:21.468Z,7.57
2023-03-25T22:58:49.406Z,7.56
2023-03-25T23:01:25.119Z,7.54
2023-03-25T23:03:55.120Z,7.51
2023-03-25T23:06:23.527Z,7.53
2023-03-25T23:08:52.064Z,7.54
2023-03-25T23:11:26.744Z,7.57
2023-03-25T23:13:57.669Z,7.60
2023-03-25T23:16:28.020Z,7.62
2023-03-25T23:18:55.929Z,7.62
2023-03-25T23:21:27.015Z,7.66
2023-03-25T23:23:58.240Z,7.69
2023-03-25T23:26:35.609Z,7.70
2023-03-25T23:29:06.054Z,7.74
2023-03-25T23:31:35.971Z,7.73
2023-03-25T23:34:07.174Z,7.75
2023-03-25T23:36:39.907Z,7.81
2023-03-25T23:39:11.526Z,7.79
2023-03-25T23:41:39.696Z,7.81
2023-03-25T23:44:08.054Z,7.82
2023-03-25T23:46:36.210Z,7.83
2023-03-25T23:49:04.220Z,7.83
2023-03-25T23:51:38.422Z,7.79
2023-03-25T23:54:08.683Z,7.78
2023-03-25T23:56:37.445Z,7.79
2023-03-25T23:59:06.776Z,7.77
